Time;durP1;ratioP1;P1;durP2;ratioP2;P2;SDS_P1;SDS_P2;PMS_P1;PMS_P2;Temp;Humidity;BMP_temperature;BMP_pressure;BME280_temperature;BME280_humidity;BME280_pressure;Samples;Min_cycle;Max_cycle;Signal;HPM_P1;HPM_P2
2021/05/22 00:01:03;;;;;;;10.32;1.50;;;12.00;69.80;;;;;;5035538;28;20045;-70
2021/05/22 00:03:29;;;;;;;9.23;2.08;;;12.00;69.70;;;;;;5026809;28;20037;-70
2021/05/22 00:05:55;;;;;;;9.77;1.38;;;12.00;70.20;;;;;;5024278;28;20029;-70
2021/05/22 00:08:20;;;;;;;7.53;1.23;;;11.90;69.70;;;;;;5031755;28;20167;-69
2021/05/22 00:10:47;;;;;;;8.95;1.33;;;12.00;69.70;;;;;;5028863;28;20041;-70
2021/05/22 00:13:15;;;;;;;8.00;0.90;;;11.90;70.20;;;;;;5029419;28;20496;-70
2021/05/22 00:15:44;;;;;;;11.20;1.33;;;11.90;70.40;;;;;;5026632;28;20476;-69
2021/05/22 00:18:10;;;;;;;10.38;1.13;;;11.90;70.30;;;;;;5032395;28;20064;-69
2021/05/22 00:20:38;;;;;;;12.00;1.85;;;11.90;70.00;;;;;;5021941;28;20052;-69
2021/05/22 00:23:04;;;;;;;7.05;1.27;;;11.90;70.20;;;;;;5031223;28;20063;-70
2021/05/22 00:25:30;;;;;;;10.45;1.40;;;11.80;71.00;;;;;;5027335;28;20052;-70
2021/05/22 00:27:56;;;;;;;8.75;1.25;;;11.80;71.40;;;;;;5031523;28;20049;-70
2021/05/22 00:30:22;;;;;;;8.55;1.05;;;11.80;71.90;;;;;;5023303;28;20405;-70
2021/05/22 00:32:48;;;;;;;7.18;1.30;;;11.70;72.00;;;;;;5033937;28;20470;-69
2021/05/22 00:35:14;;;;;;;6.15;1.02;;;11.70;72.40;;;;;;5028986;28;20075;-69
2021/05/22 00:37:40;;;;;;;10.23;1.50;;;11.70;72.80;;;;;;5035715;28;20128;-69
2021/05/22 00:40:07;;;;;;;6.53;0.90;;;11.70;73.10;;;;;;5027393;28;20061;-70
2021/05/22 00:42:36;;;;;;;8.82;1.27;;;11.60;73.40;;;;;;5024428;28;20041;-70
2021/05/22 00:45:23;;;;;;;8.93;1.45;;;11.60;73.80;;;;;;5030530;28;20033;-69
2021/05/22 00:47:51;;;;;;;9.73;1.40;;;11.60;73.80;;;;;;5032780;28;20118;-69
2021/05/22 00:50:27;;;;;;;6.78;1.42;;;11.60;73.90;;;;;;5030605;28;20041;-69
2021/05/22 00:52:53;;;;;;;10.23;1.40;;;11.60;74.10;;;;;;5032040;28;20045;-69
2021/05/22 00:55:20;;;;;;;7.55;1.40;;;11.50;74.20;;;;;;5052351;28;20047;-69
2021/05/22 00:57:46;;;;;;;5.82;1.27;;;11.60;74.30;;;;;;5013275;28;20098;-69
2021/05/22 01:00:28;;;;;;;15.13;1.77;;;11.50;74.40;;;;;;5032714;28;20365;-69
2021/05/22 01:02:54;;;;;;;10.90;1.75;;;11.50;75.00;;;;;;5026160;28;20440;-67
2021/05/22 01:05:20;;;;;;;7.88;1.13;;;11.50;74.90;;;;;;5028378;28;20033;-67
2021/05/22 01:07:48;;;;;;;8.57;1.67;;;11.50;74.60;;;;;;5025490;28;20561;-68
2021/05/22 01:10:15;;;;;;;12.00;1.70;;;11.50;75.00;;;;;;5028026;28;20086;-68
2021/05/22 01:12:45;;;;;;;8.55;1.25;;;11.60;75.00;;;;;;5025007;28;20040;-68
2021/05/22 01:15:13;;;;;;;8.60;1.88;;;11.60;75.00;;;;;;5031026;28;20038;-68
2021/05/22 01:17:42;;;;;;;8.02;1.70;;;11.50;74.90;;;;;;5021406;28;20044;-68
2021/05/22 01:20:11;;;;;;;9.98;1.60;;;11.60;75.00;;;;;;5026905;28;20366;-68
2021/05/22 01:22:48;;;;;;;5.35;1.27;;;11.60;75.00;;;;;;5030892;28;20029;-68
2021/05/22 01:25:32;;;;;;;7.07;1.60;;;11.50;75.60;;;;;;5031555;28;20535;-68
2021/05/22 01:28:00;;;;;;;;;;;11.60;75.90;;;;;;5025670;28;20033;-68
2021/05/22 01:30:26;;;;;;;8.82;1.05;;;11.50;76.50;;;;;;5031217;28;19927;-68
2021/05/22 01:32:52;;;;;;;10.32;1.35;;;11.50;77.60;;;;;;5028186;28;20037;-68
2021/05/22 01:35:19;;;;;;;7.03;1.50;;;11.50;78.00;;;;;;5036253;28;20513;-68
2021/05/22 01:37:45;;;;;;;6.50;1.10;;;11.50;78.80;;;;;;5025401;28;20369;-68
2021/05/22 01:40:12;;;;;;;7.13;1.63;;;11.40;79.30;;;;;;5033030;28;20115;-68
2021/05/22 01:42:38;;;;;;;5.15;1.05;;;11.40;80.10;;;;;;5028158;28;20053;-68
2021/05/22 01:45:10;;;;;;;5.07;1.25;;;11.30;80.60;;;;;;5021227;28;20263;-68
2021/05/22 01:47:37;;;;;;;4.38;0.90;;;11.40;81.20;;;;;;5021149;28;20079;-68
2021/05/22 01:50:04;;;;;;;8.02;1.13;;;11.30;82.50;;;;;;5036127;28;20181;-68
2021/05/22 01:52:35;;;;;;;8.18;1.63;;;11.30;82.10;;;;;;5033148;28;20603;-68
2021/05/22 01:55:03;;;;;;;3.10;1.13;;;11.30;82.50;;;;;;5018862;28;20060;-68
2021/05/22 01:57:33;;;;;;;6.57;1.00;;;11.20;82.50;;;;;;5021977;28;20112;-67
2021/05/22 02:00:03;;;;;;;5.65;1.10;;;11.30;82.90;;;;;;5025933;28;20041;-68
2021/05/22 02:02:30;;;;;;;6.78;1.00;;;11.30;82.70;;;;;;5037652;28;20094;-68
2021/05/22 02:05:02;;;;;;;6.38;1.42;;;11.20;82.90;;;;;;5021396;28;20480;-68
2021/05/22 02:07:30;;;;;;;7.60;1.20;;;11.30;83.00;;;;;;5031743;28;20081;-68
2021/05/22 02:09:58;;;;;;;7.20;1.50;;;11.30;83.80;;;;;;5020724;28;20028;-68
2021/05/22 02:12:25;;;;;;;6.47;1.17;;;11.30;83.50;;;;;;5026363;28;20040;-68
2021/05/22 02:14:52;;;;;;;7.63;1.25;;;11.30;83.30;;;;;;5019053;28;20038;-68
2021/05/22 02:17:23;;;;;;;5.63;1.20;;;11.30;83.50;;;;;;5032288;28;20034;-68
2021/05/22 02:19:51;;;;;;;6.47;1.10;;;11.30;83.60;;;;;;5021245;28;20423;-68
2021/05/22 02:22:22;;;;;;;7.78;1.10;;;11.20;83.90;;;;;;5025001;28;20087;-68
2021/05/22 02:24:49;;;;;;;8.32;1.42;;;11.20;83.90;;;;;;5027520;28;20057;-68
2021/05/22 02:27:15;;;;;;;6.40;1.10;;;11.20;83.80;;;;;;5027568;28;20036;-67
2021/05/22 02:29:44;;;;;;;6.68;1.05;;;11.20;83.80;;;;;;5024691;28;20535;-67
2021/05/22 02:32:11;;;;;;;8.50;1.48;;;11.20;84.00;;;;;;5027730;28;20037;-67
2021/05/22 02:34:44;;;;;;;7.30;1.02;;;11.20;84.10;;;;;;5017756;28;20099;-68
2021/05/22 02:37:11;;;;;;;6.97;1.15;;;11.20;84.20;;;;;;5037094;28;20284;-68
2021/05/22 02:39:40;;;;;;;9.88;1.40;;;11.20;84.30;;;;;;5021706;28;20029;-68
2021/05/22 02:42:12;;;;;;;7.20;1.20;;;11.20;84.40;;;;;;5026795;28;20064;-68
2021/05/22 02:44:38;;;;;;;10.55;1.40;;;11.20;84.40;;;;;;5026171;28;20038;-68
2021/05/22 02:47:04;;;;;;;8.23;1.40;;;11.20;84.40;;;;;;5022626;28;20034;-68
2021/05/22 02:49:31;;;;;;;8.52;1.02;;;11.20;84.10;;;;;;5030131;28;20140;-68
2021/05/22 02:52:00;;;;;;;9.88;1.33;;;11.20;84.40;;;;;;5023775;28;20037;-68
2021/05/22 02:54:29;;;;;;;6.82;1.05;;;11.20;84.40;;;;;;5038594;28;20545;-68
2021/05/22 02:56:57;;;;;;;5.45;1.00;;;11.20;84.40;;;;;;5028547;28;20042;-68
2021/05/22 02:59:24;;;;;;;8.32;1.33;;;11.20;84.40;;;;;;5027121;28;20048;-68
2021/05/22 03:01:50;;;;;;;9.93;1.30;;;11.20;84.20;;;;;;5018867;28;20512;-68
2021/05/22 03:04:17;;;;;;;8.52;1.02;;;11.10;84.10;;;;;;5038511;28;20484;-68
2021/05/22 03:06:43;;;;;;;7.65;1.23;;;11.20;84.60;;;;;;5025313;28;20084;-68
2021/05/22 03:09:09;;;;;;;6.05;1.25;;;11.20;84.80;;;;;;5030634;28;20226;-68
2021/05/22 03:11:35;;;;;;;7.22;0.77;;;11.10;85.50;;;;;;5021625;28;20423;-68
2021/05/22 03:14:01;;;;;;;5.57;1.10;;;11.10;85.90;;;;;;5035661;28;20048;-68
2021/05/22 03:16:27;;;;;;;6.47;1.00;;;11.10;86.70;;;;;;5028539;28;20041;-68
2021/05/22 03:18:53;;;;;;;5.88;1.33;;;11.00;87.00;;;;;;5032772;28;20034;-68
2021/05/22 03:21:19;;;;;;;6.72;1.00;;;11.00;87.60;;;;;;5020780;28;20036;-68
2021/05/22 03:23:45;;;;;;;5.50;0.80;;;11.00;88.10;;;;;;5037694;28;20049;-68
2021/05/22 03:26:11;;;;;;;5.53;0.77;;;11.00;88.40;;;;;;5036284;28;20095;-68
2021/05/22 03:28:37;;;;;;;7.32;0.80;;;10.90;88.90;;;;;;5031481;28;20392;-68
2021/05/22 03:31:03;;;;;;;8.95;1.70;;;10.90;89.10;;;;;;5038402;28;20112;-68
2021/05/22 03:33:29;;;;;;;7.43;1.13;;;10.90;89.70;;;;;;5028988;28;20532;-68
2021/05/22 03:35:55;;;;;;;5.20;0.90;;;10.80;90.20;;;;;;5033474;28;20114;-68
2021/05/22 03:38:20;;;;;;;5.85;1.02;;;10.80;90.50;;;;;;5025089;28;20463;-67
2021/05/22 03:40:47;;;;;;;5.50;1.05;;;10.70;90.80;;;;;;5039581;28;20049;-67
2021/05/22 03:43:13;;;;;;;7.63;1.08;;;10.70;91.40;;;;;;5025595;28;20041;-67
2021/05/22 03:45:38;;;;;;;5.45;1.27;;;10.60;91.50;;;;;;5037948;28;20695;-67
2021/05/22 03:48:05;;;;;;;7.82;1.08;;;10.50;91.80;;;;;;5029939;28;20057;-67
2021/05/22 03:50:31;;;;;;;6.13;0.93;;;10.50;92.20;;;;;;5033686;28;20486;-67
2021/05/22 03:52:56;;;;;;;2.95;0.82;;;10.40;92.50;;;;;;5030908;28;20029;-67
2021/05/22 03:55:22;;;;;;;8.88;1.33;;;10.40;92.80;;;;;;5031470;28;20470;-67
2021/05/22 03:57:48;;;;;;;5.90;1.25;;;10.30;93.20;;;;;;5026960;28;20045;-67
2021/05/22 04:00:14;;;;;;;5.35;1.38;;;10.30;93.50;;;;;;5032010;28;20083;-67
2021/05/22 04:02:40;;;;;;;7.88;1.38;;;10.30;93.70;;;;;;5035466;28;20583;-67
2021/05/22 04:05:07;;;;;;;4.82;1.10;;;10.20;94.00;;;;;;5029447;28;20063;-67
2021/05/22 04:07:33;;;;;;;7.85;1.40;;;10.10;94.40;;;;;;5040440;28;20041;-67
2021/05/22 04:09:59;;;;;;;8.93;1.13;;;10.10;94.40;;;;;;5018073;28;20729;-67
2021/05/22 04:12:24;;;;;;;8.93;1.77;;;10.00;95.00;;;;;;5037892;28;20041;-67
2021/05/22 04:14:50;;;;;;;4.45;1.13;;;10.00;95.00;;;;;;5030649;28;20045;-67
2021/05/22 04:17:16;;;;;;;10.30;1.40;;;9.90;95.50;;;;;;5037656;28;20481;-67
2021/05/22 04:19:42;;;;;;;7.45;1.48;;;9.90;95.60;;;;;;5027343;28;20038;-68
2021/05/22 04:22:07;;;;;;;5.07;1.27;;;9.90;95.80;;;;;;5038779;28;20034;-67
2021/05/22 04:24:33;;;;;;;7.13;1.35;;;9.90;96.00;;;;;;5024676;28;20062;-68
2021/05/22 04:26:59;;;;;;;6.88;1.40;;;9.80;96.10;;;;;;5024596;28;20037;-68
2021/05/22 04:29:25;;;;;;;7.65;1.63;;;9.80;96.40;;;;;;5030031;28;20048;-68
2021/05/22 04:31:51;;;;;;;8.50;1.63;;;9.80;96.50;;;;;;5040175;28;20042;-68
2021/05/22 04:34:17;;;;;;;7.03;1.20;;;9.80;96.40;;;;;;5025864;28;20064;-68
2021/05/22 04:36:42;;;;;;;7.70;1.45;;;9.80;96.60;;;;;;5028895;28;20065;-68
2021/05/22 04:39:09;;;;;;;4.93;1.20;;;9.80;96.90;;;;;;5035745;28;20539;-68
2021/05/22 04:41:34;;;;;;;5.72;1.33;;;9.80;96.90;;;;;;5034462;28;20095;-69
2021/05/22 04:44:00;;;;;;;6.43;1.10;;;9.70;96.90;;;;;;5030257;28;20033;-69
2021/05/22 04:46:26;;;;;;;4.32;1.08;;;9.70;97.20;;;;;;5024174;28;20091;-69
2021/05/22 04:48:54;;;;;;;5.32;1.17;;;9.70;97.50;;;;;;5034039;28;20113;-68
2021/05/22 04:51:20;;;;;;;6.05;1.38;;;9.70;97.50;;;;;;5032140;28;20452;-68
2021/05/22 04:53:47;;;;;;;7.93;1.58;;;9.70;97.40;;;;;;5027030;28;20038;-68
2021/05/22 04:56:13;;;;;;;7.65;1.45;;;9.80;97.50;;;;;;5029706;28;20108;-68
2021/05/22 04:58:39;;;;;;;7.80;2.10;;;9.70;97.60;;;;;;5042932;28;20468;-68
2021/05/22 05:01:05;;;;;;;6.50;1.42;;;9.70;97.60;;;;;;5023603;28;20077;-68
2021/05/22 05:03:51;;;;;;;9.35;1.70;;;9.80;97.60;;;;;;5025582;28;20041;-68
2021/05/22 05:06:18;;;;;;;8.07;1.60;;;9.80;97.80;;;;;;5024373;28;20502;-68
2021/05/22 05:08:44;;;;;;;6.80;1.50;;;9.70;97.90;;;;;;5032584;28;20107;-69
2021/05/22 05:11:10;;;;;;;5.45;1.33;;;9.80;97.80;;;;;;5024394;28;20063;-69
2021/05/22 05:13:36;;;;;;;10.27;1.50;;;9.80;97.70;;;;;;5025893;28;20038;-69
2021/05/22 05:16:02;;;;;;;6.60;1.73;;;9.80;97.80;;;;;;5028350;28;20084;-69
2021/05/22 05:18:29;;;;;;;8.77;1.30;;;9.80;97.80;;;;;;5039270;28;20071;-69
2021/05/22 05:20:55;;;;;;;7.95;1.42;;;9.80;97.70;;;;;;5019382;28;20049;-69
2021/05/22 05:23:22;;;;;;;5.57;1.02;;;9.90;97.70;;;;;;5034026;28;20038;-69
2021/05/22 05:25:52;;;;;;;8.35;1.63;;;9.90;97.70;;;;;;5032485;28;20049;-69
2021/05/22 05:28:21;;;;;;;6.72;1.08;;;9.90;97.60;;;;;;5027959;28;20552;-69
2021/05/22 05:30:48;;;;;;;5.90;1.20;;;9.90;97.50;;;;;;5031476;28;20496;-69
2021/05/22 05:33:14;;;;;;;4.60;1.10;;;9.90;97.50;;;;;;5025889;28;20052;-69
2021/05/22 05:35:39;;;;;;;5.20;0.90;;;10.00;97.40;;;;;;5032105;28;20486;-69
2021/05/22 05:38:06;;;;;;;4.97;1.20;;;10.00;97.50;;;;;;5021689;28;20451;-69
2021/05/22 05:40:32;;;;;;;5.32;1.23;;;10.00;97.40;;;;;;5030253;28;20045;-68
2021/05/22 05:42:57;;;;;;;3.25;0.93;;;10.10;97.50;;;;;;5030091;28;20424;-68
2021/05/22 05:45:24;;;;;;;4.75;0.80;;;10.10;97.50;;;;;;5033938;28;20407;-68
2021/05/22 05:47:53;;;;;;;5.10;1.15;;;10.20;97.50;;;;;;5026479;28;20119;-68
2021/05/22 05:50:19;;;;;;;4.25;1.00;;;10.20;97.50;;;;;;5027929;28;20068;-69
2021/05/22 05:52:44;;;;;;;3.58;0.80;;;10.20;97.40;;;;;;5025250;28;20121;-68
2021/05/22 05:55:12;;;;;;;7.20;1.20;;;10.30;97.30;;;;;;5032294;28;20041;-68
2021/05/22 05:57:38;;;;;;;3.17;0.85;;;10.30;97.40;;;;;;5021052;28;20038;-69
2021/05/22 06:00:05;;;;;;;7.07;1.40;;;10.30;97.40;;;;;;5029080;28;20037;-69
2021/05/22 06:02:31;;;;;;;4.03;1.30;;;10.30;97.40;;;;;;5022070;28;20099;-70
2021/05/22 06:04:57;;;;;;;5.75;0.98;;;10.40;97.40;;;;;;5026243;28;20378;-69
2021/05/22 06:07:23;;;;;;;4.95;1.38;;;10.40;97.40;;;;;;5029356;28;20386;-69
2021/05/22 06:09:49;;;;;;;3.97;0.88;;;10.50;97.40;;;;;;5027084;28;20038;-69
2021/05/22 06:12:15;;;;;;;4.28;0.80;;;10.50;97.40;;;;;;5025025;28;20040;-69
2021/05/22 06:14:46;;;;;;;5.18;0.80;;;10.50;97.30;;;;;;5020786;28;20057;-69
2021/05/22 06:17:12;;;;;;;2.97;0.57;;;10.60;97.30;;;;;;5027833;28;20044;-69
2021/05/22 06:19:38;;;;;;;5.15;0.90;;;10.60;97.20;;;;;;5024269;28;20037;-69
2021/05/22 06:22:04;;;;;;;4.85;0.88;;;10.60;97.20;;;;;;5024611;28;20546;-70
2021/05/22 06:24:30;;;;;;;6.82;1.10;;;10.70;97.20;;;;;;5022981;28;20057;-69
2021/05/22 06:26:57;;;;;;;4.70;1.10;;;10.70;97.10;;;;;;5028505;28;20111;-69
2021/05/22 06:29:23;;;;;;;5.38;1.05;;;10.60;97.00;;;;;;5020841;28;20129;-69
2021/05/22 06:31:49;;;;;;;4.88;1.02;;;10.60;97.20;;;;;;5027623;28;20128;-69
2021/05/22 06:34:15;;;;;;;4.07;1.20;;;10.60;97.20;;;;;;5030674;28;20076;-70
2021/05/22 06:36:41;;;;;;;5.10;1.17;;;10.60;97.40;;;;;;5024249;28;20103;-69
2021/05/22 06:39:07;;;;;;;4.55;0.95;;;10.70;97.60;;;;;;5022581;28;20069;-69
2021/05/22 06:41:33;;;;;;;5.78;1.05;;;10.70;97.60;;;;;;5029214;28;20040;-69
2021/05/22 06:43:59;;;;;;;4.78;0.90;;;10.70;97.90;;;;;;5024321;28;20041;-69
2021/05/22 06:48:51;;;;;;;3.83;1.40;;;10.70;97.90;;;;;;5031534;28;20030;-69
2021/05/22 06:51:17;;;;;;;4.15;0.90;;;10.70;98.00;;;;;;5027354;28;20037;-69
2021/05/22 06:53:43;;;;;;;7.15;1.08;;;10.60;98.20;;;;;;5029944;28;20113;-69
2021/05/22 06:56:09;;;;;;;3.25;1.10;;;10.70;98.20;;;;;;5025666;28;20041;-69
2021/05/22 06:58:34;;;;;;;3.97;0.95;;;10.60;98.20;;;;;;5033511;28;20107;-69
2021/05/22 07:01:00;;;;;;;5.90;1.25;;;10.70;98.40;;;;;;5022922;28;20045;-69
2021/05/22 07:03:26;;;;;;;3.50;0.90;;;10.60;98.60;;;;;;5033417;28;20037;-69
2021/05/22 07:05:52;;;;;;;4.20;1.13;;;10.60;98.60;;;;;;5029063;28;20044;-69
2021/05/22 07:08:19;;;;;;;3.58;1.05;;;10.60;98.60;;;;;;5027601;28;20051;-69
2021/05/22 07:10:46;;;;;;;4.13;1.08;;;10.60;98.70;;;;;;5025100;28;20041;-69
2021/05/22 07:13:12;;;;;;;5.13;1.05;;;10.70;98.90;;;;;;5027961;28;20451;-69
2021/05/22 07:15:38;;;;;;;5.28;1.42;;;10.70;99.00;;;;;;5023774;28;20045;-69
2021/05/22 07:18:04;;;;;;;5.45;1.20;;;10.70;99.20;;;;;;5033559;28;20476;-69
2021/05/22 07:20:30;;;;;;;5.72;1.42;;;10.80;99.40;;;;;;5026799;28;20525;-69
2021/05/22 07:22:56;;;;;;;5.28;1.70;;;10.80;99.40;;;;;;5030978;28;20045;-69
2021/05/22 07:25:23;;;;;;;5.10;1.25;;;10.90;99.50;;;;;;5026408;28;20107;-69
2021/05/22 07:27:50;;;;;;;7.90;1.60;;;10.90;99.60;;;;;;5024400;28;20481;-69
2021/05/22 07:30:16;;;;;;;3.80;1.23;;;10.80;99.60;;;;;;5032249;28;20041;-69
2021/05/22 07:32:42;;;;;;;3.35;1.08;;;10.80;99.70;;;;;;5023352;28;20034;-69
2021/05/22 07:35:11;;;;;;;4.72;1.38;;;10.80;99.90;;;;;;5033175;28;20405;-69
2021/05/22 07:37:37;;;;;;;6.03;1.50;;;10.80;99.90;;;;;;5022570;28;20072;-69
2021/05/22 07:40:05;;;;;;;7.45;1.75;;;10.80;99.90;;;;;;5031345;28;20083;-69
2021/05/22 07:42:31;;;;;;;4.68;1.25;;;10.80;99.90;;;;;;5018953;28;20042;-69
2021/05/22 07:44:57;;;;;;;6.50;1.30;;;10.90;99.90;;;;;;5030782;28;20362;-68
2021/05/22 07:47:24;;;;;;;3.08;1.27;;;10.90;99.90;;;;;;5026297;28;20039;-68
2021/05/22 07:49:51;;;;;;;3.97;1.15;;;10.90;99.90;;;;;;5032248;28;20038;-67
2021/05/22 07:52:18;;;;;;;4.45;1.52;;;10.80;99.90;;;;;;5024581;28;20067;-67
2021/05/22 07:54:46;;;;;;;4.80;1.42;;;10.70;99.90;;;;;;5033479;28;20390;-67
2021/05/22 07:57:12;;;;;;;4.00;1.70;;;10.70;99.90;;;;;;5022204;28;20040;-67
2021/05/22 07:59:39;;;;;;;4.80;1.73;;;10.60;99.90;;;;;;5033574;28;20045;-67
2021/05/22 08:02:06;;;;;;;4.53;1.38;;;10.60;99.90;;;;;;5023013;28;20053;-67
2021/05/22 08:04:33;;;;;;;7.15;1.98;;;10.60;99.90;;;;;;5034615;28;20128;-67
2021/05/22 08:06:59;;;;;;;4.10;1.50;;;10.60;99.90;;;;;;5031953;28;20401;-67
2021/05/22 08:09:25;;;;;;;5.35;1.85;;;10.60;99.90;;;;;;5028935;28;20045;-67
2021/05/22 08:11:51;;;;;;;5.00;1.90;;;10.60;99.90;;;;;;5029121;28;20046;-67
2021/05/22 08:14:16;;;;;;;4.43;1.90;;;10.60;99.90;;;;;;5024129;28;20044;-68
2021/05/22 08:16:43;;;;;;;6.00;1.75;;;10.60;99.90;;;;;;5032435;28;20421;-67
2021/05/22 08:19:10;;;;;;;3.65;1.98;;;10.60;99.90;;;;;;5035466;28;20045;-67
2021/05/22 08:21:37;;;;;;;3.45;1.70;;;10.60;99.90;;;;;;5039459;28;20039;-67
2021/05/22 08:24:03;;;;;;;4.82;1.80;;;10.60;99.90;;;;;;5029694;28;20497;-67
2021/05/22 08:26:29;;;;;;;5.47;2.13;;;10.70;99.90;;;;;;5027826;28;20041;-67
2021/05/22 08:28:55;;;;;;;2.38;2.08;;;10.70;99.90;;;;;;5030256;28;20420;-68
2021/05/22 08:31:21;;;;;;;6.28;2.15;;;10.60;99.90;;;;;;5033825;28;20049;-68
2021/05/22 08:33:47;;;;;;;4.72;2.15;;;10.70;99.90;;;;;;5028535;28;20096;-68
2021/05/22 08:36:13;;;;;;;4.05;1.95;;;10.70;99.90;;;;;;5040646;28;20038;-68
2021/05/22 08:38:39;;;;;;;3.42;1.77;;;10.70;99.90;;;;;;5023504;28;20060;-68
2021/05/22 08:41:07;;;;;;;3.90;2.10;;;10.70;99.90;;;;;;5028889;28;20060;-68
2021/05/22 08:43:33;;;;;;;2.85;1.77;;;10.70;99.90;;;;;;5038881;28;20148;-67
2021/05/22 08:46:00;;;;;;;4.85;2.22;;;10.80;99.90;;;;;;5025287;28;20044;-68
2021/05/22 08:48:26;;;;;;;5.20;1.80;;;10.90;99.90;;;;;;5031540;28;20037;-68
2021/05/22 08:50:52;;;;;;;3.40;2.58;;;10.90;99.90;;;;;;5024921;28;20041;-67
2021/05/22 08:53:17;;;;;;;5.60;2.53;;;10.90;99.90;;;;;;5033011;28;20410;-67
2021/05/22 08:55:43;;;;;;;3.58;2.25;;;10.90;99.90;;;;;;5025784;28;20037;-68
2021/05/22 08:58:09;;;;;;;4.28;2.35;;;10.90;99.90;;;;;;5033574;28;20055;-68
2021/05/22 09:00:39;;;;;;;3.22;2.20;;;10.90;99.90;;;;;;5025339;28;20424;-67
2021/05/22 09:03:11;;;;;;;4.90;2.80;;;11.00;99.90;;;;;;5041136;28;20045;-68
2021/05/22 09:05:38;;;;;;;5.47;3.75;;;11.10;99.90;;;;;;5025251;28;20047;-68
2021/05/22 09:08:06;;;;;;;3.70;2.70;;;11.40;99.90;;;;;;5032702;28;20037;-68
2021/05/22 09:10:39;;;;;;;4.35;2.38;;;11.80;99.90;;;;;;5026858;28;20045;-68
2021/05/22 09:13:13;;;;;;;4.43;2.33;;;12.20;99.90;;;;;;5041276;28;20065;-67
2021/05/22 09:15:41;;;;;;;3.10;2.20;;;12.50;99.90;;;;;;5023328;28;20037;-67
2021/05/22 09:18:21;;;;;;;6.35;3.80;;;12.80;99.90;;;;;;5032723;28;20448;-67
2021/05/22 09:20:59;;;;;;;3.80;2.85;;;13.00;99.90;;;;;;5028765;28;20062;-67
2021/05/22 09:23:35;;;;;;;4.05;2.40;;;13.10;99.90;;;;;;5028887;28;20056;-68
2021/05/22 09:26:13;;;;;;;4.72;2.53;;;13.20;99.90;;;;;;5029323;28;20123;-68
2021/05/22 09:28:50;;;;;;;5.55;3.00;;;13.40;99.90;;;;;;5032346;28;20036;-68
2021/05/22 09:31:20;;;;;;;4.20;2.83;;;13.50;99.90;;;;;;5029861;28;20049;-68
2021/05/22 09:33:47;;;;;;;3.92;2.10;;;13.60;99.90;;;;;;5030084;28;20041;-68
2021/05/22 09:36:14;;;;;;;3.85;2.38;;;13.60;99.90;;;;;;5030142;28;20061;-67
2021/05/22 09:38:44;;;;;;;5.00;2.40;;;13.40;99.90;;;;;;5028100;28;20034;-67
2021/05/22 09:41:28;;;;;;;3.33;2.25;;;13.20;99.90;;;;;;5022315;28;20033;-67
2021/05/22 09:44:08;;;;;;;3.55;2.33;;;13.00;99.80;;;;;;5034052;28;20405;-67
2021/05/22 09:46:55;;;;;;;3.10;2.03;;;12.70;99.90;;;;;;5029415;28;20041;-67
2021/05/22 09:49:25;;;;;;;3.50;2.20;;;12.60;99.90;;;;;;5022600;28;20508;-66
2021/05/22 09:51:59;;;;;;;3.38;2.70;;;12.50;99.90;;;;;;5025022;28;20052;-67
2021/05/22 09:54:50;;;;;;;3.93;2.60;;;12.70;99.90;;;;;;5025074;28;20378;-67
2021/05/22 09:57:26;;;;;;;3.33;2.17;;;13.00;99.90;;;;;;5028105;28;20472;-67
2021/05/22 10:00:12;;;;;;;1.98;1.77;;;13.10;99.90;;;;;;5031175;28;20065;-67
2021/05/22 10:02:57;;;;;;;4.65;2.30;;;13.10;99.90;;;;;;5019091;28;20553;-67
2021/05/22 10:05:32;;;;;;;;;;;13.10;99.90;;;;;;5019950;28;20053;-68
2021/05/22 10:07:59;;;;;;;2.95;2.25;;;13.00;99.60;;;;;;5029131;28;19926;-67
2021/05/22 10:10:41;;;;;;;2.30;2.10;;;13.00;99.90;;;;;;5031557;28;20104;-68
2021/05/22 10:13:08;;;;;;;4.50;2.90;;;13.20;99.90;;;;;;5022639;28;20056;-68
2021/05/22 10:15:34;;;;;;;3.25;2.95;;;13.40;99.90;;;;;;5029500;28;20478;-68
2021/05/22 10:18:01;;;;;;;3.80;2.10;;;13.70;99.90;;;;;;5028921;28;20146;-68
2021/05/22 10:20:28;;;;;;;2.78;2.00;;;14.10;99.90;;;;;;5028477;28;20129;-68
2021/05/22 10:22:55;;;;;;;4.05;1.95;;;14.30;99.80;;;;;;5020557;28;20048;-68
2021/05/22 10:25:21;;;;;;;3.70;1.70;;;14.20;99.00;;;;;;5023384;28;20095;-67
2021/05/22 10:27:48;;;;;;;4.85;2.65;;;14.00;98.30;;;;;;5027187;28;20069;-67
2021/05/22 10:30:16;;;;;;;5.05;2.75;;;13.70;98.90;;;;;;5031787;28;20076;-67
2021/05/22 10:32:43;;;;;;;5.70;2.60;;;13.40;98.80;;;;;;5027899;28;20493;-67
2021/05/22 10:35:12;;;;;;;5.32;2.95;;;13.10;99.10;;;;;;5019342;28;20068;-67
2021/05/22 10:37:41;;;;;;;3.70;3.05;;;12.90;99.40;;;;;;5035922;28;20155;-67
2021/05/22 10:40:09;;;;;;;3.05;2.72;;;12.70;99.90;;;;;;5017064;28;20034;-67
2021/05/22 10:42:35;;;;;;;4.60;3.53;;;12.60;99.90;;;;;;5027709;28;20056;-68
2021/05/22 10:45:22;;;;;;;4.50;3.65;;;12.70;99.90;;;;;;5024640;28;20450;-68
2021/05/22 10:47:48;;;;;;;5.93;3.85;;;13.00;99.90;;;;;;5033241;28;20048;-68
2021/05/22 10:50:46;;;;;;;3.75;3.45;;;13.20;99.90;;;;;;5014741;28;20038;-68
2021/05/22 10:53:19;;;;;;;3.80;3.42;;;13.40;99.90;;;;;;5028646;28;20046;-67
2021/05/22 10:55:45;;;;;;;4.88;4.00;;;13.30;99.90;;;;;;5025094;28;20049;-65
2021/05/22 10:58:12;;;;;;;3.45;2.38;;;13.20;99.90;;;;;;5041599;28;20049;-65
2021/05/22 11:00:38;;;;;;;5.90;3.78;;;13.00;99.90;;;;;;5021427;28;21000;-65
2021/05/22 11:03:07;;;;;;;5.22;3.78;;;13.00;99.90;;;;;;5028822;28;20150;-65
2021/05/22 11:05:37;;;;;;;5.78;3.20;;;12.90;99.90;;;;;;5023698;28;20036;-65
2021/05/22 11:08:09;;;;;;;4.40;3.50;;;12.80;99.90;;;;;;5033484;28;20041;-66
2021/05/22 11:10:48;;;;;;;5.63;3.30;;;12.70;99.90;;;;;;5023407;28;20111;-66
2021/05/22 11:13:23;;;;;;;7.85;3.72;;;12.60;99.90;;;;;;5029713;28;20037;-66
2021/05/22 11:15:51;;;;;;;;;;;12.60;99.90;;;;;;5026951;28;20148;-67
2021/05/22 11:18:21;;;;;;;8.77;3.75;;;12.80;99.90;;;;;;5033119;28;19923;-67
2021/05/22 11:21:08;;;;;;;5.43;3.33;;;13.00;99.90;;;;;;5020631;28;20540;-66
2021/05/22 11:23:59;;;;;;;6.20;3.28;;;13.20;99.90;;;;;;5022351;28;20029;-66
2021/05/22 11:26:48;;;;;;;6.25;3.28;;;13.30;99.90;;;;;;5021158;28;20077;-66
2021/05/22 11:29:17;;;;;;;5.60;3.30;;;13.50;99.90;;;;;;5035236;28;20408;-66
2021/05/22 11:31:44;;;;;;;6.13;2.72;;;13.70;99.90;;;;;;5028798;28;20106;-67
2021/05/22 11:34:25;;;;;;;5.20;1.80;;;13.90;99.90;;;;;;5034077;28;20103;-66
2021/05/22 11:37:09;;;;;;;7.03;1.42;;;13.90;99.90;;;;;;5024008;28;20549;-67
2021/05/22 11:39:38;;;;;;;2.05;0.90;;;14.50;99.90;;;;;;5031013;28;20484;-67
2021/05/22 11:42:40;;;;;;;3.22;0.75;;;14.90;99.90;;;;;;5033464;28;20044;-67
2021/05/22 11:45:06;;;;;;;2.80;0.68;;;15.20;97.00;;;;;;4945247;28;20039;-67
2021/05/22 11:47:34;;;;;;;3.17;1.08;;;15.10;97.70;;;;;;5009189;28;20038;-67
2021/05/22 11:50:00;;;;;;;4.53;0.90;;;14.90;97.30;;;;;;5030265;28;20319;-67
2021/05/22 11:52:27;;;;;;;6.40;0.93;;;14.70;96.60;;;;;;5030948;28;20132;-67
2021/05/22 11:54:53;;;;;;;4.07;1.02;;;14.50;96.30;;;;;;5036658;28;20183;-67
2021/05/22 11:57:19;;;;;;;3.80;1.13;;;14.50;96.80;;;;;;5025152;28;20079;-67
2021/05/22 11:59:45;;;;;;;4.95;0.90;;;14.60;96.90;;;;;;5029221;28;20458;-67
2021/05/22 12:02:13;;;;;;;4.97;1.25;;;14.70;96.40;;;;;;5034847;28;20042;-68
2021/05/22 12:04:50;;;;;;;4.43;1.20;;;14.70;96.20;;;;;;5029319;28;20052;-67
2021/05/22 12:07:16;;;;;;;4.63;0.80;;;14.80;95.70;;;;;;5024974;28;20041;-67
2021/05/22 12:09:42;;;;;;;2.90;0.70;;;14.70;95.10;;;;;;5030663;28;20041;-67
2021/05/22 12:12:10;;;;;;;5.45;1.27;;;14.60;94.50;;;;;;5036193;28;20041;-67
2021/05/22 12:14:41;;;;;;;4.82;1.20;;;14.40;94.50;;;;;;5038964;28;20051;-67
2021/05/22 12:17:08;;;;;;;4.70;1.20;;;14.30;95.10;;;;;;5028124;28;20041;-68
2021/05/22 12:19:36;;;;;;;4.93;1.20;;;14.50;95.50;;;;;;5033633;28;20531;-69
2021/05/22 12:22:03;;;;;;;3.30;1.25;;;14.70;95.30;;;;;;5029511;28;20037;-69
2021/05/22 12:24:30;;;;;;;2.97;1.13;;;14.80;94.60;;;;;;5025769;28;20132;-69
2021/05/22 12:26:57;;;;;;;4.60;1.20;;;14.60;93.30;;;;;;5029434;28;20045;-69
2021/05/22 12:29:27;;;;;;;3.30;1.13;;;14.30;92.90;;;;;;5033939;28;20041;-69
2021/05/22 12:32:01;;;;;;;6.00;1.52;;;14.00;93.20;;;;;;5039973;28;20479;-69
2021/05/22 12:34:33;;;;;;;5.85;1.70;;;13.70;93.40;;;;;;5022747;28;20456;-69
2021/05/22 12:37:03;;;;;;;5.43;1.38;;;13.50;93.60;;;;;;5028815;28;20038;-69
2021/05/22 12:39:40;;;;;;;5.60;1.80;;;13.20;94.10;;;;;;5017970;28;20068;-69
2021/05/22 12:42:12;;;;;;;10.43;2.30;;;13.10;94.60;;;;;;5034714;28;20044;-69
2021/05/22 12:44:38;;;;;;;5.97;1.90;;;12.90;95.30;;;;;;5021765;28;20379;-69
2021/05/22 12:47:04;;;;;;;5.53;1.70;;;12.80;95.80;;;;;;5031773;28;20098;-69
2021/05/22 12:49:32;;;;;;;5.57;1.90;;;12.90;96.20;;;;;;5024753;28;20508;-69
2021/05/22 12:52:12;;;;;;;8.18;2.00;;;13.40;97.20;;;;;;5027258;28;20041;-69
2021/05/22 12:54:38;;;;;;;7.75;1.73;;;13.80;96.00;;;;;;5024408;28;20529;-69
2021/05/22 12:57:04;;;;;;;4.65;1.83;;;14.00;96.00;;;;;;5029184;28;20104;-69